Time;durP1;ratioP1;P1;durP2;ratioP2;P2;SDS_P1;SDS_P2;PMS_P1;PMS_P2;Temp;Humidity;BMP_temperature;BMP_pressure;BME280_temperature;BME280_humidity;BME280_pressure;Samples;Min_cycle;Max_cycle;Signal;HPM_P1;HPM_P2
2022/05/02 00:00:15;;;;;;;5.93;5.30;;;;;;;9.22;66.83;101012.81;5054132;28;20619;-80
2022/05/02 00:02:42;;;;;;;4.57;4.17;;;;;;;9.15;67.52;100976.34;5065169;28;20235;-80
2022/05/02 00:05:09;;;;;;;4.63;4.10;;;;;;;9.24;68.38;100948.56;5070369;28;20223;-79
2022/05/02 00:07:37;;;;;;;4.70;4.30;;;;;;;9.31;69.30;100922.44;5064654;28;20213;-80
2022/05/02 00:10:06;;;;;;;5.20;4.70;;;;;;;9.35;69.11;100905.03;5078777;28;20210;-79
2022/05/02 00:12:32;;;;;;;4.87;4.37;;;;;;;9.45;68.67;100924.09;5078743;28;20248;-81
2022/05/02 00:14:59;;;;;;;5.00;4.63;;;;;;;9.47;67.85;100938.84;5079351;28;20204;-80
2022/05/02 00:17:56;;;;;;;5.33;4.93;;;;;;;9.56;68.36;100940.53;5078709;28;20258;-80
2022/05/02 00:20:12;;;;;;;5.67;5.17;;;;;;;9.65;68.12;100935.28;5077672;28;20206;-80
2022/05/02 00:22:40;;;;;;;5.33;4.93;;;;;;;9.73;68.53;100925.66;5078157;28;20204;-79
2022/05/02 00:25:08;;;;;;;4.87;4.57;;;;;;;9.49;69.64;100900.63;5079119;28;20243;-82
2022/05/02 00:27:34;;;;;;;5.50;5.00;;;;;;;9.57;70.17;100871.88;5078488;28;20677;-79
2022/05/02 00:30:01;;;;;;;5.20;4.80;;;;;;;9.61;70.02;100860.53;5077951;28;20208;-80
2022/05/02 00:32:27;;;;;;;5.60;5.17;;;;;;;9.63;69.41;100868.38;5077522;28;20273;-82
2022/05/02 00:34:54;;;;;;;6.37;5.77;;;;;;;9.70;69.13;100873.50;5077279;28;20262;-81
2022/05/02 00:37:20;;;;;;;6.17;5.67;;;;;;;9.77;68.31;100886.50;5066295;28;20204;-79
2022/05/02 00:39:48;;;;;;;5.50;5.10;;;;;;;9.81;68.50;100894.31;5037592;28;20213;-82
2022/05/02 00:42:14;;;;;;;6.03;5.53;;;;;;;9.82;67.51;100914.25;5038421;28;20210;-82
2022/05/02 00:44:42;;;;;;;5.30;4.87;;;;;;;9.86;67.17;100930.75;5038540;28;20582;-80
2022/05/02 00:47:09;;;;;;;5.33;5.03;;;;;;;9.90;67.69;100945.50;5038836;28;20261;-80
2022/05/02 00:49:38;;;;;;;5.80;5.30;;;;;;;9.92;67.86;100921.13;5038298;28;20222;-82
2022/05/02 00:52:06;;;;;;;5.33;4.93;;;;;;;9.96;68.22;100915.91;5038330;28;20215;-80
2022/05/02 00:54:32;;;;;;;5.67;5.23;;;;;;;9.94;68.14;100910.69;5038930;28;20210;-80
2022/05/02 00:57:01;;;;;;;5.70;5.17;;;;;;;9.82;68.51;100914.25;5038682;28;20205;-80
2022/05/02 00:59:28;;;;;;;5.87;5.23;;;;;;;9.80;69.54;100887.34;5037829;28;20234;-79
2022/05/02 01:01:54;;;;;;;5.13;4.73;;;;;;;9.82;69.63;100875.16;5038904;28;20279;-81
2022/05/02 01:04:21;;;;;;;5.67;5.23;;;;;;;9.82;69.33;100869.94;5038358;28;20213;-80
2022/05/02 01:09:33;;;;;;;6.27;5.77;;;;;;;9.82;69.35;100888.19;5075772;28;20724;-80
2022/05/02 01:12:00;;;;;;;5.70;5.17;;;;;;;9.75;69.20;100883.91;5078837;28;20255;-80
2022/05/02 01:14:28;;;;;;;5.00;4.60;;;;;;;9.76;69.50;100884.78;5078609;28;20694;-80
2022/05/02 01:16:54;;;;;;;5.60;5.20;;;;;;;9.76;69.96;100870.00;5078443;28;20212;-80
2022/05/02 01:19:20;;;;;;;5.40;5.00;;;;;;;9.72;70.35;100863.09;5076716;28;20250;-81
2022/05/02 01:21:48;;;;;;;5.23;4.83;;;;;;;9.73;70.62;100838.72;5077603;28;20698;-80
2022/05/02 01:24:14;;;;;;;5.20;4.80;;;;;;;9.74;70.42;100846.53;5078503;28;20274;-81
2022/05/02 01:26:41;;;;;;;5.20;4.90;;;;;;;9.71;70.36;100843.09;5078215;28;20224;-81
2022/05/02 01:29:07;;;;;;;5.40;4.67;;;;;;;9.66;70.18;100856.19;5077991;28;20228;-80
2022/05/02 01:31:34;;;;;;;4.53;4.20;;;;;;;9.68;69.43;100866.59;5077356;28;20713;-80
2022/05/02 01:34:00;;;;;;;4.27;3.97;;;;;;;9.63;68.81;100884.88;5078462;28;20234;-81
2022/05/02 01:36:27;;;;;;;5.17;4.20;;;;;;;9.65;68.53;100903.09;5072244;28;20655;-81
2022/05/02 01:38:54;;;;;;;4.77;4.47;;;;;;;9.58;69.29;100899.69;5069800;28;20573;-80
2022/05/02 01:41:21;;;;;;;4.67;4.27;;;;;;;9.53;69.50;100883.19;5078550;28;20201;-81
2022/05/02 01:43:48;;;;;;;4.60;4.30;;;;;;;9.48;69.89;100859.78;5078097;28;20696;-81
2022/05/02 01:46:15;;;;;;;5.03;4.73;;;;;;;9.44;69.55;100865.91;5077790;28;20233;-80
2022/05/02 01:48:42;;;;;;;4.67;4.37;;;;;;;9.45;69.11;100874.59;5077335;28;20642;-82
2022/05/02 01:51:08;;;;;;;5.73;4.57;;;;;;;9.43;69.37;100877.19;5078125;28;20212;-81
2022/05/02 01:53:35;;;;;;;4.67;4.37;;;;;;;9.39;69.58;100864.22;5078077;28;20262;-79
2022/05/02 01:56:03;;;;;;;4.63;4.33;;;;;;;9.35;69.41;100868.56;5077991;28;20740;-81
2022/05/02 01:58:29;;;;;;;4.53;3.93;;;;;;;9.34;69.26;100880.75;5077948;28;20232;-81
2022/05/02 02:00:56;;;;;;;5.03;4.63;;;;;;;9.36;68.59;100893.75;5076965;28;20358;-82
2022/05/02 02:03:22;;;;;;;4.47;4.20;;;;;;;9.36;68.32;100898.13;5078016;28;20208;-80
2022/05/02 02:05:50;;;;;;;5.07;4.63;;;;;;;9.36;69.84;100878.13;5070946;28;20232;-81
2022/05/02 02:08:19;;;;;;;4.67;4.30;;;;;;;9.24;70.69;100837.41;5068733;28;20258;-82
2022/05/02 02:10:46;;;;;;;4.67;4.27;;;;;;;9.22;70.73;100833.09;5076886;28;20256;-81
2022/05/02 02:13:15;;;;;;;4.60;4.20;;;;;;;9.18;70.77;100820.94;5078190;28;20586;-79
2022/05/02 02:15:41;;;;;;;4.67;4.37;;;;;;;9.15;70.64;100830.50;5078663;28;20205;-83
2022/05/02 02:18:08;;;;;;;4.63;4.33;;;;;;;9.13;70.41;100834.00;5077060;28;20224;-81
2022/05/02 02:20:35;;;;;;;4.37;4.07;;;;;;;9.12;69.92;100845.31;5076376;28;20209;-80
2022/05/02 02:23:03;;;;;;;5.37;4.87;;;;;;;8.87;70.15;100855.84;5073002;28;20204;-82
2022/05/02 02:25:29;;;;;;;4.97;4.43;;;;;;;8.81;70.38;100852.41;5068931;28;20606;-81
2022/05/02 02:27:56;;;;;;;5.20;4.80;;;;;;;8.35;71.41;100827.44;5070627;28;20251;-82
2022/05/02 02:30:23;;;;;;;6.07;5.57;;;;;;;8.07;72.44;100803.25;5073355;28;20648;-80
2022/05/02 02:32:50;;;;;;;5.50;5.00;;;;;;;8.00;72.70;100778.97;5073673;28;20208;-80
2022/05/02 02:35:18;;;;;;;6.07;5.60;;;;;;;7.99;73.30;100753.00;5069804;28;20254;-80
2022/05/02 02:37:46;;;;;;;6.00;5.40;;;;;;;8.01;74.42;100730.44;5077213;28;20260;-84
2022/05/02 02:40:13;;;;;;;5.33;4.83;;;;;;;8.11;75.12;100700.97;5076360;28;20691;-80
2022/05/02 02:42:39;;;;;;;7.03;6.53;;;;;;;8.21;74.96;100684.44;5077479;28;20231;-82
2022/05/02 02:45:06;;;;;;;7.07;6.47;;;;;;;8.04;75.49;100679.31;5077087;28;20227;-82
2022/05/02 02:47:34;;;;;;;7.40;6.80;;;;;;;7.85;75.83;100682.84;5076895;28;20237;-79
2022/05/02 02:50:00;;;;;;;7.63;7.00;;;;;;;7.98;76.29;100642.97;5076632;28;20206;-80
2022/05/02 02:52:27;;;;;;;7.10;6.50;;;;;;;7.74;75.74;100657.78;5077280;28;20205;-82
2022/05/02 02:54:53;;;;;;;7.00;6.60;;;;;;;7.81;75.49;100653.44;5077054;28;20202;-82
2022/05/02 02:57:20;;;;;;;7.47;6.87;;;;;;;7.94;77.24;100638.66;5077719;28;20204;-80
2022/05/02 02:59:46;;;;;;;7.97;7.47;;;;;;;8.11;78.00;100603.03;5076711;28;20804;-80
2022/05/02 03:02:13;;;;;;;6.57;6.07;;;;;;;8.28;78.12;100587.28;5078064;28;20236;-83
2022/05/02 03:07:26;;;;;;;6.13;5.73;;;;;;;8.50;77.24;100595.88;5064210;28;20234;-82
2022/05/02 03:09:52;;;;;;;7.50;6.83;;;;;;;8.51;77.63;100591.50;5080460;28;20271;-80
2022/05/02 03:12:20;;;;;;;7.10;6.50;;;;;;;8.59;77.12;100602.72;5085115;28;20679;-79
2022/05/02 03:14:46;;;;;;;8.73;6.50;;;;;;;8.67;75.49;100624.34;5085028;28;20233;-79
2022/05/02 03:17:12;;;;;;;6.77;6.30;;;;;;;8.67;74.12;100676.38;5084759;28;20229;-80
2022/05/02 03:19:41;;;;;;;6.47;6.07;;;;;;;8.73;74.03;100689.34;5082270;28;20228;-80
2022/05/02 03:22:07;;;;;;;6.47;5.97;;;;;;;8.79;74.62;100687.59;5077215;28;20207;-81
2022/05/02 03:24:34;;;;;;;6.67;6.10;;;;;;;8.80;75.37;100673.69;5076787;28;20210;-80
2022/05/02 03:27:00;;;;;;;6.30;5.90;;;;;;;8.84;75.50;100649.34;5076880;28;20228;-81
2022/05/02 03:29:27;;;;;;;6.50;6.10;;;;;;;8.79;75.50;100640.72;5076123;28;20284;-82
2022/05/02 03:31:53;;;;;;;6.10;5.70;;;;;;;8.82;75.51;100638.09;5074436;28;20212;-79
2022/05/02 03:34:20;;;;;;;6.90;6.30;;;;;;;8.85;74.99;100653.69;5075259;28;20808;-81
2022/05/02 03:36:47;;;;;;;6.70;6.20;;;;;;;8.89;75.42;100664.06;5067634;28;20201;-80
2022/05/02 03:39:14;;;;;;;6.20;5.80;;;;;;;8.73;74.33;100694.53;5071257;28;20273;-79
2022/05/02 03:41:40;;;;;;;6.77;6.33;;;;;;;8.44;74.35;100697.34;5076295;28;20260;-80
2022/05/02 03:44:06;;;;;;;7.70;7.10;;;;;;;8.12;76.44;100666.28;5075637;28;20235;-81
2022/05/02 03:46:33;;;;;;;8.23;7.63;;;;;;;7.81;78.44;100603.19;5075796;28;20786;-80
2022/05/02 03:49:00;;;;;;;7.80;7.20;;;;;;;8.01;78.28;100571.88;5074299;28;20273;-79
2022/05/02 03:51:26;;;;;;;6.70;6.10;;;;;;;8.20;78.09;100572.63;5075869;28;20208;-81
2022/05/02 03:53:54;;;;;;;7.03;6.43;;;;;;;8.28;78.39;100568.25;5076270;28;20267;-81
2022/05/02 03:56:21;;;;;;;7.03;6.47;;;;;;;8.42;78.39;100581.16;5075513;28;20259;-79
2022/05/02 03:58:47;;;;;;;7.37;6.87;;;;;;;8.44;76.62;100613.25;5075209;28;20227;-81
2022/05/02 04:01:13;;;;;;;7.10;6.60;;;;;;;8.37;75.55;100660.97;5075847;28;20969;-80
2022/05/02 04:03:40;;;;;;;10.20;8.17;;;;;;;8.30;75.99;100680.91;5076623;28;20275;-80
2022/05/02 04:06:06;;;;;;;7.87;7.27;;;;;;;7.86;77.36;100648.22;5066516;28;20248;-80
2022/05/02 04:11:02;;;;;;;7.90;7.30;;;;;;;7.85;78.37;100578.91;5070103;28;20232;-77
2022/05/02 04:13:28;;;;;;;7.77;7.07;;;;;;;8.08;78.25;100571.84;5065186;28;20214;-76
2022/05/02 04:15:55;;;;;;;7.67;7.10;;;;;;;8.21;77.46;100583.03;5060377;28;20246;-76
2022/05/02 04:18:21;;;;;;;7.80;7.30;;;;;;;8.29;77.85;100589.03;5061533;28;20228;-77
2022/05/02 04:20:48;;;;;;;7.50;6.80;;;;;;;8.38;77.83;100584.63;5066874;28;20669;-77
2022/05/02 04:23:14;;;;;;;7.17;6.67;;;;;;;8.37;77.75;100583.78;5063392;28;20208;-77
2022/05/02 04:25:41;;;;;;;7.57;6.87;;;;;;;8.40;77.93;100578.53;5062814;28;20196;-77
2022/05/02 04:28:10;;;;;;;6.80;6.30;;;;;;;8.42;78.66;100589.84;5060401;28;20224;-76
2022/05/02 04:30:37;;;;;;;7.37;6.83;;;;;;;8.32;77.04;100606.34;5062493;28;20239;-77
2022/05/02 04:33:04;;;;;;;7.97;7.27;;;;;;;7.81;77.61;100629.16;5062239;28;20216;-77
2022/05/02 04:35:31;;;;;;;8.10;7.50;;;;;;;7.19;81.12;100563.63;5065187;28;20203;-76
2022/05/02 04:37:58;;;;;;;7.53;6.93;;;;;;;7.07;81.81;100518.66;5060874;28;20250;-76
2022/05/02 04:40:25;;;;;;;8.63;7.83;;;;;;;7.10;81.90;100499.63;5059231;28;20211;-76
2022/05/02 04:42:51;;;;;;;8.00;7.30;;;;;;;7.05;83.94;100467.63;5059701;28;20217;-76
2022/05/02 04:45:19;;;;;;;8.13;7.63;;;;;;;6.90;83.10;100451.25;5060186;28;20200;-76
2022/05/02 04:47:46;;;;;;;8.03;7.33;;;;;;;7.01;83.52;100460.72;5061379;28;20224;-76
2022/05/02 04:50:12;;;;;;;7.67;7.17;;;;;;;7.24;82.72;100464.09;5064531;28;20258;-76
2022/05/02 04:52:39;;;;;;;7.60;7.10;;;;;;;7.43;81.84;100482.16;5061757;28;20223;-77
2022/05/02 04:55:06;;;;;;;6.90;6.40;;;;;;;7.60;81.31;100510.66;5062701;28;20216;-75
2022/05/02 04:57:32;;;;;;;8.47;7.87;;;;;;;7.73;81.10;100528.75;5063723;28;20200;-76
2022/05/02 04:59:59;;;;;;;7.60;6.90;;;;;;;7.79;80.79;100542.56;5063445;28;20662;-76
2022/05/02 05:02:27;;;;;;;7.93;7.33;;;;;;;7.86;80.56;100544.25;5065629;28;20226;-75
2022/05/02 05:04:53;;;;;;;7.23;6.73;;;;;;;7.95;80.06;100550.28;5063929;28;20200;-75
2022/05/02 05:07:19;;;;;;;6.93;6.40;;;;;;;8.01;79.67;100570.16;5063873;28;20268;-75
2022/05/02 05:09:46;;;;;;;7.30;6.70;;;;;;;8.05;79.20;100578.81;5064547;28;20214;-77
2022/05/02 05:12:20;;;;;;;6.80;6.27;;;;;;;8.05;79.23;100582.28;5064246;28;20224;-77
2022/05/02 05:17:54;;;;;;;7.17;6.57;;;;;;;8.19;77.96;100613.38;5065161;28;20205;-76
2022/05/02 05:20:29;;;;;;;7.13;6.63;;;;;;;8.24;77.80;100628.94;5066028;28;20199;-77
2022/05/02 05:23:11;;;;;;;7.37;6.57;;;;;;;8.34;77.56;100635.81;5066449;28;20231;-76
2022/05/02 05:25:48;;;;;;;7.27;6.57;;;;;;;8.31;77.44;100625.44;5069182;28;20275;-76
2022/05/02 05:28:53;;;;;;;6.40;5.90;;;;;;;8.28;78.77;100609.84;5066404;28;20208;-77
2022/05/02 05:31:31;;;;;;;6.80;6.27;;;;;;;8.29;78.87;100594.25;5065351;28;20253;-77
2022/05/02 05:34:06;;;;;;;7.07;6.57;;;;;;;8.07;78.67;100601.31;5074128;28;20284;-75
2022/05/02 05:36:42;;;;;;;7.20;6.60;;;;;;;7.66;80.22;100578.16;5076054;28;20192;-76
2022/05/02 05:39:12;;;;;;;8.73;7.90;;;;;;;7.24;82.47;100530.72;5075918;28;20204;-75
2022/05/02 05:41:58;;;;;;;8.00;7.20;;;;;;;7.25;82.49;100496.94;5075118;28;20239;-77
2022/05/02 05:44:36;;;;;;;8.43;7.73;;;;;;;7.49;82.59;100485.59;5074603;28;20660;-77
2022/05/02 05:47:16;;;;;;;8.13;7.37;;;;;;;7.70;82.47;100492.38;5075490;28;20212;-77
2022/05/02 05:49:59;;;;;;;8.27;7.37;;;;;;;7.88;81.42;100508.72;5075049;28;20248;-77
2022/05/02 05:52:36;;;;;;;9.90;8.20;;;;;;;7.87;80.47;100535.56;5074836;28;20243;-76
2022/05/02 05:55:05;;;;;;;8.73;8.03;;;;;;;7.30;81.79;100538.50;5066416;28;20209;-77
2022/05/02 05:57:42;;;;;;;10.40;9.40;;;;;;;7.20;83.40;100510.84;5073870;28;20228;-76
2022/05/02 06:00:11;;;;;;;9.17;8.47;;;;;;;7.36;84.53;100477.00;5074858;28;20253;-76
2022/05/02 06:02:49;;;;;;;8.60;7.90;;;;;;;7.61;83.96;100468.19;5074215;28;20230;-76
2022/05/02 06:05:18;;;;;;;8.20;7.53;;;;;;;7.82;83.82;100486.25;5073445;28;20191;-74
2022/05/02 06:07:46;;;;;;;9.10;8.40;;;;;;;7.96;81.92;100514.75;5073302;28;20271;-73
2022/05/02 06:10:16;;;;;;;8.40;7.60;;;;;;;7.64;82.19;100541.78;5065242;28;20224;-74
2022/05/02 06:12:44;;;;;;;9.37;8.57;;;;;;;7.81;82.42;100540.81;5072930;28;20231;-74
2022/05/02 06:20:45;;;;;;;8.23;7.63;;;;;;;8.21;80.38;100593.44;5073003;28;20210;-75
2022/05/02 06:23:14;;;;;;;8.20;7.60;;;;;;;8.33;80.26;100603.75;5073075;28;20265;-73
2022/05/02 06:25:42;;;;;;;7.97;7.27;;;;;;;8.44;80.22;100601.09;5073135;28;20208;-74
2022/05/02 06:28:09;;;;;;;7.93;7.33;;;;;;;8.63;78.45;100646.06;5072793;28;20230;-74
2022/05/02 06:30:37;;;;;;;7.80;7.30;;;;;;;8.78;77.60;100672.81;5072501;28;20212;-74
2022/05/02 06:33:10;;;;;;;7.30;6.70;;;;;;;8.89;76.25;100710.06;5072650;28;20302;-74
2022/05/02 06:35:48;;;;;;;7.20;6.50;;;;;;;9.02;75.17;100742.94;5072817;28;20214;-74
2022/05/02 06:38:28;;;;;;;8.57;7.87;;;;;;;9.09;75.38;100765.44;5060582;28;20241;-72
2022/05/02 06:41:04;;;;;;;7.53;7.07;;;;;;;9.11;75.00;100753.25;5052615;28;20232;-73
2022/05/02 06:43:34;;;;;;;7.60;6.70;;;;;;;9.23;74.77;100760.13;5052263;28;20646;-73
2022/05/02 06:46:16;;;;;;;6.93;6.43;;;;;;;9.27;74.08;100774.00;5053175;28;20197;-72
2022/05/02 06:48:47;;;;;;;7.17;6.57;;;;;;;9.40;73.04;100806.03;5052451;28;20211;-73
2022/05/02 06:51:16;;;;;;;6.97;6.37;;;;;;;9.50;72.46;100825.91;5052544;28;20226;-73
2022/05/02 06:54:18;;;;;;;7.10;6.37;;;;;;;9.61;72.91;100834.47;5052342;28;20203;-76
2022/05/02 06:56:48;;;;;;;6.97;6.37;;;;;;;9.72;72.45;100826.59;5058646;28;20728;-79
2022/05/02 06:59:31;;;;;;;7.23;6.63;;;;;;;9.82;72.34;100845.63;5052362;28;20190;-77
2022/05/02 07:01:59;;;;;;;7.13;6.63;;;;;;;9.92;72.50;100842.03;5059138;28;20238;-78
2022/05/02 07:04:42;;;;;;;6.50;6.07;;;;;;;10.02;71.98;100854.09;5056261;28;20266;-75
2022/05/02 07:07:34;;;;;;;8.63;7.90;;;;;;;10.14;72.00;100858.34;5062668;28;20437;-74
2022/05/02 07:10:05;;;;;;;9.53;8.00;;;;;;;10.26;71.34;100862.56;5067877;28;20221;-78
2022/05/02 07:12:35;;;;;;;7.60;7.10;;;;;;;10.34;71.00;100884.25;5073187;28;20281;-75
2022/05/02 07:15:09;;;;;;;8.55;8.00;;;;;;;10.45;71.57;100878.91;5071396;28;20429;-73
2022/05/02 07:17:51;;;;;;;7.67;7.07;;;;;;;10.55;71.02;100869.25;5071420;28;20579;-73
2022/05/02 07:20:20;;;;;;;8.53;7.93;;;;;;;10.62;70.84;100881.31;5071452;28;20588;-73
2022/05/02 07:23:01;;;;;;;8.27;7.57;;;;;;;10.68;70.29;100894.28;5071970;28;20311;-73
2022/05/02 07:25:31;;;;;;;7.57;6.97;;;;;;;10.77;69.90;100903.78;5071510;28;20624;-72
2022/05/02 07:28:11;;;;;;;8.50;7.80;;;;;;;10.85;69.99;100901.94;5072154;28;20629;-72
2022/05/02 07:30:39;;;;;;;7.70;7.20;;;;;;;10.90;70.22;100900.09;5071511;28;20235;-78
2022/05/02 07:33:10;;;;;;;8.53;7.67;;;;;;;10.95;69.94;100908.75;5072929;28;20730;-78
2022/05/02 07:35:38;;;;;;;8.13;7.43;;;;;;;10.96;69.71;100915.72;5072258;28;20193;-75
2022/05/02 07:38:06;;;;;;;7.80;7.20;;;;;;;10.97;70.16;100900.91;5065354;28;20247;-75
2022/05/02 07:40:34;;;;;;;8.33;7.60;;;;;;;11.00;69.59;100914.81;5069855;28;20200;-74
2022/05/02 07:43:03;;;;;;;9.73;8.50;;;;;;;11.01;69.62;100918.28;5071575;28;20207;-75
2022/05/02 07:45:31;;;;;;;8.43;7.73;;;;;;;10.98;70.23;100900.91;5071725;28;20210;-75
2022/05/02 07:48:00;;;;;;;8.73;8.03;;;;;;;11.01;70.56;100893.00;5071793;28;20230;-75
2022/05/02 07:50:28;;;;;;;9.30;8.40;;;;;;;11.02;70.89;100888.63;5071278;28;20215;-75
2022/05/02 07:52:58;;;;;;;17.47;8.40;;;;;;;11.06;71.38;100858.97;5071644;28;20638;-75
2022/05/02 07:55:24;;;;;;;8.23;7.50;;;;;;;11.11;70.98;100870.22;5071707;28;20621;-75
2022/05/02 07:57:56;;;;;;;9.53;8.67;;;;;;;11.10;71.16;100871.13;5071474;28;20200;-75
2022/05/02 08:00:24;;;;;;;9.70;9.00;;;;;;;11.12;72.35;100851.06;5071494;28;20256;-75
2022/05/02 08:02:51;;;;;;;8.47;7.87;;;;;;;11.21;71.56;100869.22;5071113;28;20671;-75
2022/05/02 08:05:20;;;;;;;8.87;8.17;;;;;;;11.27;71.15;100870.88;5071673;28;20255;-74
2022/05/02 08:07:46;;;;;;;8.27;7.57;;;;;;;11.33;71.12;100868.16;5067924;28;20231;-75
2022/05/02 08:10:45;;;;;;;8.93;8.23;;;;;;;11.42;70.91;100873.25;5066849;28;20204;-75
2022/05/02 08:13:30;;;;;;;8.80;8.10;;;;;;;11.55;71.08;100870.44;5071433;28;20266;-75
2022/05/02 08:16:02;;;;;;;8.97;8.07;;;;;;;11.68;70.73;100866.75;5071501;28;20243;-75
2022/05/02 08:19:02;;;;;;;9.47;8.73;;;;;;;11.84;70.05;100889.13;5071677;28;20295;-75
2022/05/02 08:21:34;;;;;;;8.60;8.10;;;;;;;11.96;69.27;100910.78;5071420;28;20231;-77
2022/05/02 08:27:19;;;;;;;8.53;8.03;;;;;;;12.26;69.04;100918.09;5071413;28;20212;-76
2022/05/02 08:30:06;;;;;;;9.20;8.40;;;;;;;12.42;67.99;100963.16;5071277;28;20207;-74
2022/05/02 08:32:44;;;;;;;8.40;7.70;;;;;;;12.58;67.59;100982.09;5074934;28;20621;-77
2022/05/02 08:35:15;;;;;;;8.43;7.83;;;;;;;12.69;67.56;100987.13;5075039;28;20208;-76
2022/05/02 08:38:08;;;;;;;8.63;8.03;;;;;;;12.78;67.16;100997.41;5071957;28;20205;-76
2022/05/02 08:41:13;;;;;;;9.37;8.63;;;;;;;12.91;67.07;101000.69;5073090;28;20205;-76
2022/05/02 08:44:18;;;;;;;8.57;8.00;;;;;;;13.11;66.79;100989.81;5075116;28;20204;-76
2022/05/02 08:47:26;;;;;;;8.87;8.27;;;;;;;13.26;67.11;100986.88;5073997;28;20258;-76
2022/05/02 08:50:28;;;;;;;9.70;9.00;;;;;;;13.41;67.38;100976.97;5074563;28;20205;-76
2022/05/02 08:53:20;;;;;;;9.97;9.17;;;;;;;13.46;67.29;100988.22;5074805;28;20589;-76
2022/05/02 08:56:05;;;;;;;9.10;8.43;;;;;;;13.71;66.67;100985.91;5074517;28;20708;-76
2022/05/02 08:58:58;;;;;;;10.03;9.33;;;;;;;13.81;66.07;101023.28;5074703;28;20213;-76
2022/05/02 09:01:52;;;;;;;9.07;8.23;;;;;;;13.92;66.70;101021.28;5074911;28;20236;-76
2022/05/02 09:04:56;;;;;;;9.43;8.73;;;;;;;14.07;64.50;101041.94;5074567;28;20213;-76
2022/05/02 09:08:03;;;;;;;9.13;8.53;;;;;;;14.20;64.01;101076.63;5065454;28;20214;-76
2022/05/02 09:10:50;;;;;;;12.87;10.30;;;;;;;14.19;64.88;101076.66;5073919;28;20220;-76
2022/05/02 09:13:48;;;;;;;9.40;8.60;;;;;;;14.30;63.06;101101.75;5074545;28;20245;-76
2022/05/02 09:16:45;;;;;;;9.20;8.43;;;;;;;14.30;63.46;101104.38;5074481;28;20247;-76
2022/05/02 09:19:53;;;;;;;9.20;8.40;;;;;;;14.36;64.48;101081.50;5073617;28;20213;-76
2022/05/02 09:23:01;;;;;;;9.93;8.77;;;;;;;14.49;64.48;101056.66;5074242;28;20225;-76
2022/05/02 09:25:35;;;;;;;9.93;8.50;;;;;;;14.64;63.80;101076.47;5073274;28;20254;-77
2022/05/02 09:28:03;;;;;;;16.73;9.17;;;;;;;14.66;62.92;101103.56;5060220;28;20240;-76
2022/05/02 09:31:11;;;;;;;9.03;8.43;;;;;;;14.86;63.26;101100.41;5053671;28;20201;-76
2022/05/02 09:33:44;;;;;;;7.47;6.97;;;;;;;15.05;61.80;101135.84;5053177;28;20224;-75
2022/05/02 09:36:23;;;;;;;10.13;7.97;;;;;;;15.14;61.56;101149.66;5053804;28;20279;-76
2022/05/02 09:39:00;;;;;;;8.30;7.60;;;;;;;15.19;61.89;101145.13;5053945;28;20197;-76
2022/05/02 09:41:41;;;;;;;8.20;7.60;;;;;;;15.13;61.00;101172.44;5053469;28;20246;-76
2022/05/02 09:50:21;;;;;;;8.57;6.97;;;;;;;15.24;59.79;101177.41;5053563;28;20274;-76
2022/05/02 09:53:10;;;;;;;10.77;8.33;;;;;;;15.28;58.32;101195.72;5053405;28;20711;-76
2022/05/02 09:58:36;;;;;;;6.33;5.87;;;;;;;15.26;58.43;101215.94;5071534;28;20698;-76
2022/05/02 10:01:07;;;;;;;6.00;5.63;;;;;;;15.30;57.02;101245.66;5073582;28;20227;-76
2022/05/02 10:04:12;;;;;;;7.57;5.83;;;;;;;15.37;56.75;101289.31;5073513;28;20186;-75
2022/05/02 10:06:43;;;;;;;6.13;5.47;;;;;;;15.39;54.81;101326.13;5072929;28;20683;-76
2022/05/02 10:09:29;;;;;;;5.80;5.30;;;;;;;15.42;54.05;101360.22;5072812;28;20776;-76
2022/05/02 10:12:08;;;;;;;6.47;5.87;;;;;;;15.54;54.61;101345.91;5073315;28;20311;-75
2022/05/02 10:14:51;;;;;;;5.60;5.20;;;;;;;15.60;55.74;101364.19;5073200;28;20672;-76
2022/05/02 10:17:32;;;;;;;6.20;5.80;;;;;;;15.71;55.12;101363.91;5072954;28;20214;-77
2022/05/02 10:20:05;;;;;;;6.63;5.97;;;;;;;15.76;56.25;101346.28;5073123;28;20195;-76
2022/05/02 10:22:44;;;;;;;5.23;4.93;;;;;;;15.83;56.20;101295.19;5073177;28;20288;-77
2022/05/02 10:25:16;;;;;;;6.17;5.20;;;;;;;15.93;54.57;101323.00;5072557;28;20729;-77
2022/05/02 10:28:03;;;;;;;6.93;5.47;;;;;;;16.03;52.77;101381.53;5064291;28;20647;-76
2022/05/02 10:30:42;;;;;;;5.83;5.43;;;;;;;16.05;53.23;101385.88;5072782;28;20214;-77
2022/05/02 10:33:14;;;;;;;6.07;5.57;;;;;;;16.16;52.44;101421.59;5072839;28;20304;-77
2022/05/02 10:35:45;;;;;;;11.77;5.90;;;;;;;16.25;52.89;101397.63;5074225;28;20194;-76
2022/05/02 10:38:19;;;;;;;6.67;6.17;;;;;;;16.30;52.47;101414.19;5071816;28;20204;-77
2022/05/02 10:40:46;;;;;;;6.43;6.00;;;;;;;16.33;53.62;101386.88;5062881;28;20201;-77
2022/05/02 10:43:24;;;;;;;6.90;6.40;;;;;;;16.38;53.62;101359.50;5067034;28;20210;-76
2022/05/02 10:45:51;;;;;;;6.30;5.90;;;;;;;16.51;51.78;101407.47;5072593;28;20187;-75
2022/05/02 10:48:30;;;;;;;6.67;6.07;;;;;;;16.58;51.46;101452.97;5072253;28;20227;-76
2022/05/02 10:51:06;;;;;;;6.83;6.33;;;;;;;16.54;53.87;101382.78;5072295;28;20239;-77
2022/05/02 10:53:57;;;;;;;6.60;6.10;;;;;;;16.68;51.94;101343.72;5071525;28;20657;-76
2022/05/02 10:56:29;;;;;;;7.13;6.63;;;;;;;16.82;56.01;101336.28;5064133;28;20277;-78
2022/05/02 10:59:02;;;;;;;7.40;6.80;;;;;;;16.94;50.70;101390.41;5072070;28;20256;-78
2022/05/02 11:01:49;;;;;;;6.60;5.70;;;;;;;16.97;51.95;101432.53;5072253;28;20234;-77
2022/05/02 11:04:28;;;;;;;6.70;6.10;;;;;;;17.07;52.25;101373.31;5072335;28;20256;-78
2022/05/02 11:07:04;;;;;;;5.87;5.43;;;;;;;17.21;52.71;101407.19;5072015;28;20285;-78
2022/05/02 11:09:39;;;;;;;5.43;5.10;;;;;;;17.41;51.82;101369.59;5055094;28;20247;-78
2022/05/02 11:12:10;;;;;;;6.70;6.20;;;;;;;17.64;53.32;101362.69;5054041;28;20262;-78
2022/05/02 11:14:50;;;;;;;7.03;6.43;;;;;;;17.88;51.11;101362.81;5053996;28;20191;-78
2022/05/02 11:17:26;;;;;;;6.40;5.90;;;;;;;18.14;51.96;101336.34;5059455;28;20211;-78
2022/05/02 11:23:06;;;;;;;5.90;5.40;;;;;;;18.65;50.00;101487.84;5051783;28;20226;-80
2022/05/02 11:25:37;;;;;;;6.03;5.53;;;;;;;18.57;46.19;101620.34;5068237;28;20211;-79
2022/05/02 11:28:17;;;;;;;5.50;5.10;;;;;;;18.86;47.67;101615.88;5067196;28;20676;-79
2022/05/02 11:30:54;;;;;;;6.17;5.60;;;;;;;19.65;47.96;101560.91;5073232;28;20219;-79
2022/05/02 11:33:27;;;;;;;5.70;5.20;;;;;;;21.35;41.06;101704.28;5074130;28;20211;-79
2022/05/02 11:36:00;;;;;;;5.60;5.10;;;;;;;22.83;37.59;101880.25;5077220;28;20238;-81
2022/05/02 11:38:32;;;;;;;6.63;6.22;;;;;;;24.15;35.80;101978.59;5076581;28;20449;-82
2022/05/02 11:41:00;;;;;;;6.23;5.83;;;;;;;25.45;32.87;102091.97;5071535;28;20311;-78
2022/05/02 11:43:31;;;;;;;6.57;6.07;;;;;;;26.80;30.18;102180.63;5071822;28;20200;-78
2022/05/02 11:46:10;;;;;;;6.40;5.90;;;;;;;27.83;29.03;102200.22;5065018;28;20215;-78
2022/05/02 11:49:04;;;;;;;6.27;5.77;;;;;;;28.60;28.65;102216.75;5060598;28;20653;-78
2022/05/02 11:51:44;;;;;;;6.73;6.33;;;;;;;29.74;27.14;102190.94;5052207;28;20308;-78
2022/05/02 11:54:23;;;;;;;6.83;6.33;;;;;;;30.41;24.64;102241.69;5058214;28;20215;-78
2022/05/02 11:56:55;;;;;;;6.20;5.80;;;;;;;30.83;25.12;102250.22;5052200;28;20217;-78
2022/05/02 11:59:23;;;;;;;6.57;6.17;;;;;;;31.55;23.72;102246.47;5051703;28;20745;-78
2022/05/02 12:02:02;;;;;;;6.77;6.17;;;;;;;32.22;23.53;102239.31;5051129;28;20283;-78
2022/05/02 12:04:32;;;;;;;6.53;6.13;;;;;;;32.79;21.96;102251.66;5052283;28;20258;-78
2022/05/02 12:07:01;;;;;;;7.07;6.47;;;;;;;33.20;21.15;102247.28;5059662;28;20220;-78
2022/05/02 12:09:32;;;;;;;6.87;6.47;;;;;;;33.39;20.72;102254.63;5066285;28;20666;-78
2022/05/02 12:12:04;;;;;;;6.23;5.80;;;;;;;33.74;22.12;102207.34;5074581;28;20224;-78
2022/05/02 12:14:32;;;;;;;6.50;6.00;;;;;;;34.29;21.51;102173.50;5074980;28;20232;-78
2022/05/02 12:17:06;;;;;;;7.40;6.80;;;;;;;34.14;19.46;102192.03;5074525;28;20666;-78
2022/05/02 12:19:33;;;;;;;7.03;6.53;;;;;;;34.14;20.50;102183.91;5074143;28;20227;-78
2022/05/02 12:22:02;;;;;;;8.33;7.33;;;;;;;33.94;19.38;102186.59;5066623;28;20224;-78
2022/05/02 12:24:33;;;;;;;6.87;6.43;;;;;;;34.32;19.38;102149.69;5074818;28;20249;-78
2022/05/02 12:27:00;;;;;;;6.83;6.37;;;;;;;34.58;19.39;102159.94;5075128;28;20189;-78